Chittenango, New York
Current Conditions -  °F | °C
As of 3:54 PM on Sunday 23 Nov 2014 (Local Time) from KSYR Reporting Station
Light Rain Light Rain  
Wind Chill: 50°   Ceiling: 7500
Heat Index: 50°   Visibility: 10mi
Dew Point: 42°   Wind: 7mph
Humidity: 74%   Direction: 100°E
Pressure: 30"   Gusts: NA
Location:  43.05°N, 75.87°W
Report Text: KSYR 232054Z 10006KT 10SM -RA FEW060 BKN075 OVC090 10/06 A3000 RMK AO2 SLP157 P0000 60000 T01000056 56019 $
Loading
Personal Weather Stations






























Interactive Weather Map New forecast layout! Learn more

10-Day Weather Forecast

Advertisements
Track Severe Weather on mobile